Time;durP1;ratioP1;P1;durP2;ratioP2;P2;SDS_P1;SDS_P2;PMS_P1;PMS_P2;Temp;Humidity;BMP_temperature;BMP_pressure;BME280_temperature;BME280_humidity;BME280_pressure;Samples;Min_cycle;Max_cycle;Signal;HPM_P1;HPM_P2
2023/07/04 00:00:39;;;;;;;7.00;2.72;;;;;;;;;;5014187;28;20092;-61
2023/07/04 00:03:04;;;;;;;7.88;2.53;;;;;;;;;;5014008;28;20080;-61
2023/07/04 00:05:30;;;;;;;6.75;2.75;;;;;;;;;;5013837;28;20029;-61
2023/07/04 00:07:55;;;;;;;10.18;2.80;;;;;;;;;;5013083;28;20378;-62
2023/07/04 00:10:20;;;;;;;7.55;3.08;;;;;;;;;;5013967;28;20032;-62
2023/07/04 00:12:46;;;;;;;9.05;3.15;;;;;;;;;;5013815;28;20506;-61
2023/07/04 00:15:13;;;;;;;8.18;2.90;;;;;;;;;;5013782;28;20125;-62
2023/07/04 00:17:39;;;;;;;7.80;2.97;;;;;;;;;;5013720;28;20109;-62
2023/07/04 00:20:06;;;;;;;8.93;2.95;;;;;;;;;;5013667;28;20453;-61
2023/07/04 00:22:33;;;;;;;13.60;3.05;;;;;;;;;;5013792;28;20026;-62
2023/07/04 00:24:59;;;;;;;9.07;3.15;;;;;;;;;;5013810;28;20026;-61
2023/07/04 00:27:25;;;;;;;11.30;3.45;;;;;;;;;;5013643;28;20101;-61
2023/07/04 00:29:50;;;;;;;6.68;2.80;;;;;;;;;;5013695;28;20160;-62
2023/07/04 00:32:16;;;;;;;9.07;2.97;;;;;;;;;;5013686;28;20026;-61
2023/07/04 00:34:45;;;;;;;6.47;2.95;;;;;;;;;;5013440;28;20018;-62
2023/07/04 00:37:11;;;;;;;9.48;3.65;;;;;;;;;;5013442;28;20021;-61
2023/07/04 00:39:37;;;;;;;8.15;3.00;;;;;;;;;;5013264;28;20040;-62
2023/07/04 00:42:07;;;;;;;9.35;2.95;;;;;;;;;;5013652;28;20124;-62
2023/07/04 00:44:37;;;;;;;7.82;3.22;;;;;;;;;;5012257;28;20050;-61
2023/07/04 00:47:10;;;;;;;9.30;3.13;;;;;;;;;;5005973;28;20046;-61
2023/07/04 00:49:44;;;;;;;11.02;3.17;;;;;;;;;;4993467;28;20034;-61
2023/07/04 00:52:23;;;;;;;9.60;3.22;;;;;;;;;;4993884;28;20038;-63
2023/07/04 00:55:01;;;;;;;8.70;2.88;;;;;;;;;;4999146;28;20356;-61
2023/07/04 00:57:32;;;;;;;10.57;3.35;;;;;;;;;;5010744;28;20029;-61
2023/07/04 01:00:09;;;;;;;7.70;3.17;;;;;;;;;;5008426;28;20038;-61
2023/07/04 01:02:35;;;;;;;8.35;3.20;;;;;;;;;;5020693;28;20116;-62
2023/07/04 01:05:05;;;;;;;11.02;3.15;;;;;;;;;;5020119;28;20072;-61
2023/07/04 01:07:58;;;;;;;10.02;3.38;;;;;;;;;;5020984;28;20045;-61
2023/07/04 01:10:45;;;;;;;9.70;3.03;;;;;;;;;;5006254;28;20437;-61
2023/07/04 01:13:33;;;;;;;9.75;3.08;;;;;;;;;;5018302;28;20483;-61
2023/07/04 01:16:03;;;;;;;10.60;3.38;;;;;;;;;;5021827;28;20037;-62
2023/07/04 01:18:29;;;;;;;14.50;3.33;;;;;;;;;;5018518;28;20025;-61
2023/07/04 01:20:54;;;;;;;6.18;2.78;;;;;;;;;;5020614;28;20041;-61
2023/07/04 01:23:33;;;;;;;10.63;3.30;;;;;;;;;;5020580;28;20072;-61
2023/07/04 01:26:23;;;;;;;9.52;3.20;;;;;;;;;;5021587;28;20132;-61
2023/07/04 01:28:53;;;;;;;9.98;3.17;;;;;;;;;;5018910;28;20037;-61
2023/07/04 01:31:25;;;;;;;9.00;3.13;;;;;;;;;;5032794;28;20037;-61
2023/07/04 01:33:51;;;;;;;8.98;3.22;;;;;;;;;;5032421;28;20033;-61
2023/07/04 01:36:20;;;;;;;7.53;3.40;;;;;;;;;;5032745;28;20033;-62
2023/07/04 01:38:46;;;;;;;12.60;4.00;;;;;;;;;;5032744;28;20079;-62
2023/07/04 01:41:12;;;;;;;9.35;3.60;;;;;;;;;;5017406;28;20034;-61
2023/07/04 01:43:38;;;;;;;9.65;3.58;;;;;;;;;;5012661;28;20042;-64
2023/07/04 01:46:03;;;;;;;10.82;3.70;;;;;;;;;;4994862;28;20026;-64
2023/07/04 01:48:29;;;;;;;10.93;3.88;;;;;;;;;;4993088;28;20018;-61
2023/07/04 01:50:54;;;;;;;11.43;4.07;;;;;;;;;;4993192;28;20038;-62
2023/07/04 01:53:20;;;;;;;10.18;3.85;;;;;;;;;;4993093;28;20050;-61
2023/07/04 01:55:46;;;;;;;11.40;4.35;;;;;;;;;;4996988;28;20026;-61
2023/07/04 01:58:11;;;;;;;9.73;4.20;;;;;;;;;;5012865;28;20026;-61
2023/07/04 02:00:38;;;;;;;10.32;3.80;;;;;;;;;;5012777;28;20029;-61
2023/07/04 02:03:04;;;;;;;13.57;4.40;;;;;;;;;;5012383;28;20029;-61
2023/07/04 02:05:29;;;;;;;7.15;3.92;;;;;;;;;;5012794;28;20034;-63
2023/07/04 02:07:55;;;;;;;11.07;3.75;;;;;;;;;;5012783;28;20113;-61
2023/07/04 02:10:20;;;;;;;10.25;3.80;;;;;;;;;;5012599;28;20026;-61
2023/07/04 02:12:45;;;;;;;9.57;3.58;;;;;;;;;;5012570;28;20076;-62
2023/07/04 02:15:11;;;;;;;7.40;3.97;;;;;;;;;;5012466;28;20042;-61
2023/07/04 02:17:37;;;;;;;8.88;3.88;;;;;;;;;;5012656;28;20025;-64
2023/07/04 02:20:04;;;;;;;11.77;3.95;;;;;;;;;;5012532;28;20021;-61
2023/07/04 02:22:29;;;;;;;8.20;3.80;;;;;;;;;;5012509;28;20033;-62
2023/07/04 02:24:55;;;;;;;10.32;4.10;;;;;;;;;;5012612;28;20038;-61
2023/07/04 02:27:20;;;;;;;9.57;4.22;;;;;;;;;;5012501;28;20061;-61
2023/07/04 02:29:47;;;;;;;11.48;3.88;;;;;;;;;;5012554;28;20030;-61
2023/07/04 02:32:13;;;;;;;11.55;4.22;;;;;;;;;;5016209;28;20032;-61
2023/07/04 02:34:38;;;;;;;8.18;4.07;;;;;;;;;;5016302;28;20421;-61
2023/07/04 02:37:04;;;;;;;9.70;3.63;;;;;;;;;;5016099;28;20041;-61
2023/07/04 02:39:30;;;;;;;8.07;3.95;;;;;;;;;;5015947;28;20026;-61
2023/07/04 02:41:55;;;;;;;11.40;4.05;;;;;;;;;;5015947;28;20041;-63
2023/07/04 02:44:21;;;;;;;7.45;3.83;;;;;;;;;;5015459;28;20069;-61
2023/07/04 02:46:46;;;;;;;9.43;3.80;;;;;;;;;;5015892;28;20025;-61
2023/07/04 02:49:11;;;;;;;10.20;3.85;;;;;;;;;;5015928;28;20057;-61
2023/07/04 02:51:37;;;;;;;10.10;4.28;;;;;;;;;;5016771;28;20026;-59
2023/07/04 02:54:02;;;;;;;7.35;3.78;;;;;;;;;;5018022;28;20018;-60
2023/07/04 02:56:28;;;;;;;10.07;3.38;;;;;;;;;;5016303;28;20030;-60
2023/07/04 02:58:54;;;;;;;13.35;4.03;;;;;;;;;;5015534;28;20026;-61
2023/07/04 03:01:19;;;;;;;9.18;3.70;;;;;;;;;;5015628;28;20095;-62
2023/07/04 03:03:44;;;;;;;8.55;3.10;;;;;;;;;;5015517;28;20030;-60
2023/07/04 03:06:10;;;;;;;8.05;3.60;;;;;;;;;;5015673;28;20033;-60
2023/07/04 03:08:35;;;;;;;12.98;4.00;;;;;;;;;;5015541;28;20045;-60
2023/07/04 03:11:01;;;;;;;9.73;3.80;;;;;;;;;;5015470;28;20060;-60
2023/07/04 03:13:26;;;;;;;11.90;4.30;;;;;;;;;;5015124;28;20052;-60
2023/07/04 03:15:52;;;;;;;9.18;3.80;;;;;;;;;;5015372;28;20029;-60
2023/07/04 03:18:17;;;;;;;7.50;3.47;;;;;;;;;;5015300;28;20389;-60
2023/07/04 03:20:43;;;;;;;7.47;3.40;;;;;;;;;;5015189;28;20026;-61
2023/07/04 03:23:08;;;;;;;10.82;3.08;;;;;;;;;;5015139;28;20025;-60
2023/07/04 03:25:33;;;;;;;9.35;3.75;;;;;;;;;;5015093;28;20105;-60
2023/07/04 03:27:59;;;;;;;56.28;39.60;;;;;;;;;;5015025;28;20026;-60
2023/07/04 03:30:24;;;;;;;7.00;3.13;;;;;;;;;;5015156;28;20083;-60
2023/07/04 03:32:50;;;;;;;12.40;4.22;;;;;;;;;;5015135;28;20050;-60
2023/07/04 03:35:15;;;;;;;11.80;4.32;;;;;;;;;;5014980;28;20073;-60
2023/07/04 03:37:41;;;;;;;8.50;4.10;;;;;;;;;;5014953;28;20363;-60
2023/07/04 03:40:09;;;;;;;8.75;4.20;;;;;;;;;;5014779;28;20401;-60
2023/07/04 03:42:36;;;;;;;6.78;3.88;;;;;;;;;;5014459;28;20043;-60
2023/07/04 03:45:03;;;;;;;10.80;3.35;;;;;;;;;;5014817;28;20026;-60
2023/07/04 03:47:28;;;;;;;10.88;4.25;;;;;;;;;;5014770;28;20033;-60
2023/07/04 03:49:54;;;;;;;10.65;4.15;;;;;;;;;;5014745;28;20356;-60
2023/07/04 03:52:19;;;;;;;8.02;3.33;;;;;;;;;;5014624;28;20113;-60
2023/07/04 03:54:45;;;;;;;8.15;2.92;;;;;;;;;;5014733;28;20030;-62
2023/07/04 03:57:10;;;;;;;11.80;4.00;;;;;;;;;;5014191;28;20080;-60
2023/07/04 03:59:36;;;;;;;7.47;3.25;;;;;;;;;;5014604;28;20034;-61
2023/07/04 04:02:02;;;;;;;10.18;3.70;;;;;;;;;;5014466;28;20033;-60
2023/07/04 04:04:27;;;;;;;8.55;3.70;;;;;;;;;;4997035;28;20464;-60
2023/07/04 04:06:56;;;;;;;9.80;3.80;;;;;;;;;;5014569;28;20022;-61
2023/07/04 04:09:22;;;;;;;8.10;3.40;;;;;;;;;;5014553;28;20537;-61
2023/07/04 04:11:48;;;;;;;9.55;3.42;;;;;;;;;;5014010;28;20471;-61
2023/07/04 04:14:13;;;;;;;8.98;3.60;;;;;;;;;;5014275;28;20028;-61
2023/07/04 04:16:38;;;;;;;11.10;3.58;;;;;;;;;;5014472;28;20048;-60
2023/07/04 04:19:04;;;;;;;11.88;3.65;;;;;;;;;;5014381;28;20022;-60
2023/07/04 04:21:29;;;;;;;10.68;3.75;;;;;;;;;;5014092;28;20069;-61
2023/07/04 04:23:55;;;;;;;10.10;3.88;;;;;;;;;;5014070;28;20034;-60
2023/07/04 04:26:21;;;;;;;13.30;4.18;;;;;;;;;;5013878;28;20468;-61
2023/07/04 04:28:47;;;;;;;10.68;3.90;;;;;;;;;;5013864;28;20490;-61
2023/07/04 04:31:14;;;;;;;8.20;3.65;;;;;;;;;;5013972;28;20026;-60
2023/07/04 04:33:39;;;;;;;9.20;3.85;;;;;;;;;;5013718;28;20026;-60
2023/07/04 04:36:05;;;;;;;8.07;3.58;;;;;;;;;;5013813;28;20029;-60
2023/07/04 04:38:30;;;;;;;10.63;4.00;;;;;;;;;;5014032;28;20030;-60
2023/07/04 04:41:03;;;;;;;11.77;3.72;;;;;;;;;;4992389;28;20038;-61
2023/07/04 04:43:32;;;;;;;11.48;3.85;;;;;;;;;;4993892;28;20046;-60
2023/07/04 04:46:01;;;;;;;10.05;3.60;;;;;;;;;;4994155;28;20471;-60
2023/07/04 04:48:29;;;;;;;8.77;3.75;;;;;;;;;;4994110;28;20474;-60
2023/07/04 04:51:07;;;;;;;13.52;3.78;;;;;;;;;;4994087;28;20038;-60
2023/07/04 04:53:35;;;;;;;11.13;3.60;;;;;;;;;;4993343;28;20036;-60
2023/07/04 04:56:00;;;;;;;10.85;4.15;;;;;;;;;;4999429;28;20128;-60
2023/07/04 04:58:25;;;;;;;12.88;4.40;;;;;;;;;;5013484;28;20523;-60
2023/07/04 05:00:51;;;;;;;10.88;4.00;;;;;;;;;;5013449;28;20112;-60
2023/07/04 05:03:16;;;;;;;15.35;4.03;;;;;;;;;;5013374;28;20018;-60
2023/07/04 05:05:42;;;;;;;11.18;4.07;;;;;;;;;;5013452;28;20018;-60
2023/07/04 05:08:07;;;;;;;11.57;4.30;;;;;;;;;;5013539;28;20388;-60
2023/07/04 05:10:32;;;;;;;11.75;4.38;;;;;;;;;;5013090;28;20018;-62
2023/07/04 05:12:58;;;;;;;12.40;3.88;;;;;;;;;;5012978;28;20040;-60
2023/07/04 05:15:24;;;;;;;12.95;4.55;;;;;;;;;;5013223;28;20037;-60
2023/07/04 05:17:49;;;;;;;10.32;4.32;;;;;;;;;;5013180;28;20149;-62
2023/07/04 05:20:22;;;;;;;15.63;4.50;;;;;;;;;;5013048;28;20049;-60
2023/07/04 05:22:48;;;;;;;8.93;3.90;;;;;;;;;;5013003;28;20064;-61
2023/07/04 05:25:13;;;;;;;9.95;3.90;;;;;;;;;;5012828;28;20041;-61
2023/07/04 05:27:38;;;;;;;10.15;4.00;;;;;;;;;;5013022;28;20030;-61
2023/07/04 05:30:04;;;;;;;13.00;3.70;;;;;;;;;;4995347;28;20030;-60
2023/07/04 05:32:30;;;;;;;11.77;3.45;;;;;;;;;;5012897;28;20083;-61
2023/07/04 05:34:56;;;;;;;14.30;3.78;;;;;;;;;;5012964;28;20030;-61
2023/07/04 05:37:21;;;;;;;10.55;3.60;;;;;;;;;;5013018;28;20032;-62
2023/07/04 05:39:47;;;;;;;12.02;3.67;;;;;;;;;;5012575;28;20072;-60
2023/07/04 05:42:13;;;;;;;7.88;3.03;;;;;;;;;;5012885;28;20521;-61
2023/07/04 05:44:38;;;;;;;7.00;2.78;;;;;;;;;;5012825;28;20436;-61
2023/07/04 05:47:03;;;;;;;9.52;3.15;;;;;;;;;;5012882;28;20230;-60
2023/07/04 05:49:29;;;;;;;8.50;3.60;;;;;;;;;;4994988;28;20117;-60
2023/07/04 05:51:54;;;;;;;6.85;3.00;;;;;;;;;;5012739;28;20071;-60
2023/07/04 05:54:20;;;;;;;10.45;3.20;;;;;;;;;;5012683;28;20101;-60
2023/07/04 05:56:51;;;;;;;4.47;2.28;;;;;;;;;;5012753;28;20474;-60
2023/07/04 05:59:16;;;;;;;9.93;3.65;;;;;;;;;;5013412;28;20387;-60
2023/07/04 06:01:43;;;;;;;5.70;2.45;;;;;;;;;;5013154;28;20034;-62
2023/07/04 06:04:10;;;;;;;4.97;2.20;;;;;;;;;;5012761;28;20041;-61
2023/07/04 06:06:38;;;;;;;7.15;1.92;;;;;;;;;;5016162;28;20025;-62
2023/07/04 06:09:11;;;;;;;6.40;1.90;;;;;;;;;;5016411;28;20360;-62
2023/07/04 06:11:43;;;;;;;5.43;1.60;;;;;;;;;;5016169;28;20040;-62
2023/07/04 06:14:08;;;;;;;5.07;1.65;;;;;;;;;;5016596;28;20018;-62
2023/07/04 06:16:35;;;;;;;3.42;1.38;;;;;;;;;;5014406;28;20359;-61
2023/07/04 06:19:00;;;;;;;5.68;1.50;;;;;;;;;;5015746;28;20026;-61
2023/07/04 06:21:26;;;;;;;3.55;1.10;;;;;;;;;;5015851;28;20033;-61
2023/07/04 06:23:55;;;;;;;4.32;1.27;;;;;;;;;;5015581;28;20037;-60
2023/07/04 06:26:21;;;;;;;2.25;1.20;;;;;;;;;;5015984;28;20091;-62
2023/07/04 06:28:48;;;;;;;4.25;1.13;;;;;;;;;;5015866;28;20029;-61
2023/07/04 06:31:15;;;;;;;2.33;1.10;;;;;;;;;;5015752;28;20065;-62
2023/07/04 06:33:41;;;;;;;1.88;0.90;;;;;;;;;;5015800;28;20030;-63
2023/07/04 06:36:09;;;;;;;2.80;1.10;;;;;;;;;;5016067;28;20026;-63
2023/07/04 06:38:34;;;;;;;3.35;1.00;;;;;;;;;;5014333;28;20034;-62
2023/07/04 06:41:02;;;;;;;4.45;1.10;;;;;;;;;;5015355;28;20049;-61
2023/07/04 06:43:30;;;;;;;3.92;1.20;;;;;;;;;;5015505;28;20042;-62
2023/07/04 06:45:56;;;;;;;3.00;1.30;;;;;;;;;;5015542;28;20124;-62
2023/07/04 06:48:23;;;;;;;4.18;0.82;;;;;;;;;;5015620;28;20041;-61
2023/07/04 06:50:55;;;;;;;4.88;1.10;;;;;;;;;;5000152;28;20109;-62
2023/07/04 06:53:21;;;;;;;3.60;1.10;;;;;;;;;;4995865;28;20030;-62
2023/07/04 06:55:46;;;;;;;3.47;1.13;;;;;;;;;;4999686;28;20159;-61
2023/07/04 06:58:12;;;;;;;5.38;1.08;;;;;;;;;;5015465;28;20159;-61
2023/07/04 07:00:37;;;;;;;5.68;1.10;;;;;;;;;;5015259;28;20040;-62
2023/07/04 07:03:03;;;;;;;4.68;1.20;;;;;;;;;;5015066;28;20049;-61
2023/07/04 07:05:28;;;;;;;3.38;1.17;;;;;;;;;;5014969;28;20034;-61
2023/07/04 07:07:53;;;;;;;2.83;0.82;;;;;;;;;;5015159;28;20021;-62
2023/07/04 07:10:19;;;;;;;5.38;0.90;;;;;;;;;;5015023;28;20033;-62
2023/07/04 07:12:45;;;;;;;3.53;1.10;;;;;;;;;;5015098;28;20109;-62
2023/07/04 07:15:10;;;;;;;2.08;0.80;;;;;;;;;;5014990;28;20026;-61
2023/07/04 07:17:36;;;;;;;3.05;1.08;;;;;;;;;;5014754;28;20375;-62
2023/07/04 07:20:01;;;;;;;6.13;1.30;;;;;;;;;;5014807;28;20022;-62
2023/07/04 07:22:26;;;;;;;3.53;1.20;;;;;;;;;;5015237;28;20463;-62
2023/07/04 07:24:52;;;;;;;3.47;0.90;;;;;;;;;;5014843;28;20105;-62
2023/07/04 07:27:17;;;;;;;5.45;1.20;;;;;;;;;;5014602;28;20038;-62
2023/07/04 07:29:47;;;;;;;2.47;1.05;;;;;;;;;;4997348;28;20049;-62
2023/07/04 07:32:12;;;;;;;3.77;1.63;;;;;;;;;;5014878;28;20060;-62
2023/07/04 07:34:37;;;;;;;3.30;1.13;;;;;;;;;;5014652;28;20030;-61
2023/07/04 07:37:03;;;;;;;4.20;1.10;;;;;;;;;;5014420;28;20030;-62
2023/07/04 07:39:29;;;;;;;5.18;1.15;;;;;;;;;;5014613;28;20022;-61
2023/07/04 07:41:54;;;;;;;3.50;1.25;;;;;;;;;;5014511;28;20390;-62
2023/07/04 07:44:19;;;;;;;2.88;1.30;;;;;;;;;;5014587;28;20042;-62
2023/07/04 07:46:45;;;;;;;4.45;1.40;;;;;;;;;;5014386;28;20502;-62
2023/07/04 07:49:11;;;;;;;3.88;1.10;;;;;;;;;;5014091;28;20442;-62
2023/07/04 07:51:37;;;;;;;3.58;1.40;;;;;;;;;;5014329;28;20070;-62
2023/07/04 07:54:03;;;;;;;2.75;1.10;;;;;;;;;;5014510;28;20026;-62
2023/07/04 07:56:37;;;;;;;2.80;1.10;;;;;;;;;;5014142;28;20117;-62
2023/07/04 07:59:03;;;;;;;4.88;1.02;;;;;;;;;;5014166;28;20026;-63
2023/07/04 08:01:31;;;;;;;3.53;1.13;;;;;;;;;;5014133;28;20421;-63
2023/07/04 08:04:01;;;;;;;3.22;1.10;;;;;;;;;;5013882;28;20030;-63
2023/07/04 08:06:29;;;;;;;3.75;1.38;;;;;;;;;;5014436;28;20025;-63
2023/07/04 08:08:56;;;;;;;4.13;1.30;;;;;;;;;;5014086;28;20106;-63
2023/07/04 08:11:22;;;;;;;2.85;1.15;;;;;;;;;;5006346;28;20032;-62
2023/07/04 08:13:49;;;;;;;2.70;1.30;;;;;;;;;;5014108;28;20026;-63
2023/07/04 08:16:18;;;;;;;2.60;1.17;;;;;;;;;;5014068;28;20105;-62
2023/07/04 08:18:43;;;;;;;4.63;1.23;;;;;;;;;;5013798;28;20030;-63
2023/07/04 08:21:08;;;;;;;3.42;1.30;;;;;;;;;;5013787;28;20133;-63
2023/07/04 08:23:34;;;;;;;7.68;1.42;;;;;;;;;;5013698;28;20056;-63
2023/07/04 08:25:59;;;;;;;2.78;1.00;;;;;;;;;;5013786;28;20079;-63
2023/07/04 08:28:27;;;;;;;3.90;1.30;;;;;;;;;;5012912;28;20125;-63
2023/07/04 08:30:53;;;;;;;2.83;1.10;;;;;;;;;;5013770;28;20040;-63
2023/07/04 08:33:19;;;;;;;4.15;1.30;;;;;;;;;;5013238;28;20029;-63
2023/07/04 08:35:53;;;;;;;4.75;1.30;;;;;;;;;;5013802;28;20025;-66
2023/07/04 08:38:19;;;;;;;2.50;1.10;;;;;;;;;;5013677;28;20049;-63
2023/07/04 08:40:45;;;;;;;3.33;1.30;;;;;;;;;;5013462;28;20131;-63
2023/07/04 08:43:11;;;;;;;4.13;1.20;;;;;;;;;;5013345;28;20050;-63
2023/07/04 08:45:38;;;;;;;3.90;1.20;;;;;;;;;;5013477;28;20025;-63
2023/07/04 08:48:04;;;;;;;5.18;1.38;;;;;;;;;;5013202;28;20054;-63
2023/07/04 08:50:33;;;;;;;6.00;1.33;;;;;;;;;;5013421;28;20490;-63
2023/07/04 08:53:22;;;;;;;2.75;1.00;;;;;;;;;;5013260;28;20080;-63
2023/07/04 08:56:34;;;;;;;5.20;1.40;;;;;;;;;;5013326;28;20060;-62
2023/07/04 08:59:12;;;;;;;2.88;1.35;;;;;;;;;;4991350;28;20404;-63
2023/07/04 09:01:44;;;;;;;4.28;1.23;;;;;;;;;;4991083;28;20060;-62
2023/07/04 09:04:18;;;;;;;6.13;1.30;;;;;;;;;;4991555;28;20476;-62
2023/07/04 09:07:05;;;;;;;2.63;1.10;;;;;;;;;;4991450;28;20034;-62
2023/07/04 09:09:57;;;;;;;8.07;1.30;;;;;;;;;;4991412;28;20599;-62
2023/07/04 09:12:22;;;;;;;2.67;1.08;;;;;;;;;;4982660;28;20030;-62
2023/07/04 09:15:00;;;;;;;6.10;1.30;;;;;;;;;;4991425;28;20026;-62
2023/07/04 09:17:52;;;;;;;6.03;1.20;;;;;;;;;;4991280;28;20475;-62
2023/07/04 09:20:18;;;;;;;4.82;1.10;;;;;;;;;;4991005;28;20042;-62
2023/07/04 09:22:44;;;;;;;5.25;1.40;;;;;;;;;;4991070;28;20407;-62
2023/07/04 09:25:10;;;;;;;3.65;1.30;;;;;;;;;;4990666;28;20034;-62
2023/07/04 09:27:36;;;;;;;4.40;1.50;;;;;;;;;;4991033;28;20109;-62
2023/07/04 09:30:03;;;;;;;2.53;1.17;;;;;;;;;;4991168;28;20022;-62
2023/07/04 09:32:29;;;;;;;5.82;1.30;;;;;;;;;;4998987;28;20046;-62
2023/07/04 09:35:01;;;;;;;3.45;1.00;;;;;;;;;;5012698;28;20468;-63
2023/07/04 09:37:26;;;;;;;4.15;1.30;;;;;;;;;;5012644;28;20030;-61
2023/07/04 09:39:55;;;;;;;5.30;0.93;;;;;;;;;;5012466;28;20048;-62
2023/07/04 09:42:23;;;;;;;7.72;1.20;;;;;;;;;;5012550;28;20034;-63
2023/07/04 09:44:53;;;;;;;1.85;0.90;;;;;;;;;;5012581;28;20026;-62
2023/07/04 09:47:28;;;;;;;3.35;1.20;;;;;;;;;;5012407;28;20088;-62
2023/07/04 09:50:13;;;;;;;3.83;0.98;;;;;;;;;;5012653;28;20038;-63
2023/07/04 09:52:39;;;;;;;3.10;1.10;;;;;;;;;;4994997;28;20463;-63
2023/07/04 09:55:16;;;;;;;5.78;1.00;;;;;;;;;;5012443;28;20498;-63
2023/07/04 09:57:43;;;;;;;4.28;1.45;;;;;;;;;;5012541;28;20042;-62
2023/07/04 10:00:25;;;;;;;4.28;1.00;;;;;;;;;;5012246;28;20463;-62
2023/07/04 10:02:55;;;;;;;2.80;0.90;;;;;;;;;;5012372;28;20041;-63
2023/07/04 10:05:32;;;;;;;3.58;1.38;;;;;;;;;;5012449;28;20037;-62
2023/07/04 10:08:09;;;;;;;5.05;1.10;;;;;;;;;;5012452;28;20036;-63
2023/07/04 10:10:44;;;;;;;4.65;1.10;;;;;;;;;;5012489;28;20482;-63
2023/07/04 10:13:12;;;;;;;2.92;1.02;;;;;;;;;;5012119;28;20030;-64
2023/07/04 10:15:43;;;;;;;3.35;1.05;;;;;;;;;;5012189;28;20022;-63
2023/07/04 10:18:22;;;;;;;2.65;0.90;;;;;;;;;;5012601;28;20475;-64
2023/07/04 10:20:53;;;;;;;3.53;1.23;;;;;;;;;;5012314;28;20021;-63
2023/07/04 10:23:21;;;;;;;9.65;1.67;;;;;;;;;;4991155;28;20052;-63
2023/07/04 10:25:48;;;;;;;2.95;0.90;;;;;;;;;;5011517;28;20026;-62
2023/07/04 10:28:17;;;;;;;2.55;1.10;;;;;;;;;;5011675;28;20064;-62
2023/07/04 10:30:48;;;;;;;4.00;1.30;;;;;;;;;;5012106;28;20049;-61
2023/07/04 10:33:40;;;;;;;5.45;0.90;;;;;;;;;;5011984;28;20022;-63
2023/07/04 10:36:10;;;;;;;5.78;1.20;;;;;;;;;;5011647;28;20037;-63
2023/07/04 10:38:48;;;;;;;6.13;1.08;;;;;;;;;;5011902;28;20056;-63
2023/07/04 10:41:30;;;;;;;6.10;1.10;;;;;;;;;;5011580;28;20042;-63
2023/07/04 10:44:00;;;;;;;10.38;2.10;;;;;;;;;;5011542;28;20133;-63
2023/07/04 10:46:29;;;;;;;55.88;10.15;;;;;;;;;;5011841;28;20414;-63
2023/07/04 10:49:01;;;;;;;92.63;15.50;;;;;;;;;;5011747;28;20072;-63
2023/07/04 10:51:38;;;;;;;8.82;2.13;;;;;;;;;;5013409;28;20064;-63
2023/07/04 10:54:07;;;;;;;19.23;4.15;;;;;;;;;;5015805;28;20461;-64
2023/07/04 10:56:35;;;;;;;3.92;1.27;;;;;;;;;;5014432;28;20033;-64
2023/07/04 10:59:17;;;;;;;12.77;2.38;;;;;;;;;;5015353;28;20029;-64
2023/07/04 11:01:54;;;;;;;4.25;1.70;;;;;;;;;;5014750;28;20475;-63
2023/07/04 11:04:26;;;;;;;10.80;2.25;;;;;;;;;;5014955;28;20026;-63
2023/07/04 11:07:08;;;;;;;9.40;2.35;;;;;;;;;;5015249;28;20442;-64
2023/07/04 11:09:37;;;;;;;13.85;3.97;;;;;;;;;;5015128;28;20347;-62
2023/07/04 11:12:07;;;;;;;7.85;2.03;;;;;;;;;;5014296;28;20026;-63
2023/07/04 11:14:37;;;;;;;5.85;2.15;;;;;;;;;;5015555;28;20030;-63
2023/07/04 11:17:06;;;;;;;4.85;1.75;;;;;;;;;;5015455;28;20022;-63
2023/07/04 11:19:35;;;;;;;2.97;1.00;;;;;;;;;;5015368;28;20144;-67
2023/07/04 11:22:02;;;;;;;4.07;1.65;;;;;;;;;;5015275;28;20287;-63
2023/07/04 11:24:51;;;;;;;5.65;1.88;;;;;;;;;;5015181;28;20030;-64
2023/07/04 11:27:20;;;;;;;6.87;1.23;;;;;;;;;;5014883;28;20053;-64
2023/07/04 11:29:54;;;;;;;3.75;1.30;;;;;;;;;;5015095;28;20267;-63
2023/07/04 11:32:22;;;;;;;2.65;0.95;;;;;;;;;;5015131;28;20076;-63
2023/07/04 11:34:51;;;;;;;7.30;1.13;;;;;;;;;;5015146;28;20022;-64
2023/07/04 11:37:30;;;;;;;5.20;1.30;;;;;;;;;;5014883;28;20112;-62
2023/07/04 11:39:58;;;;;;;4.00;1.13;;;;;;;;;;5014927;28;20271;-62
2023/07/04 11:42:33;;;;;;;3.53;1.20;;;;;;;;;;5014382;28;20038;-66
2023/07/04 11:45:11;;;;;;;3.72;1.27;;;;;;;;;;5014877;28;20033;-65
2023/07/04 11:47:43;;;;;;;5.93;1.33;;;;;;;;;;5014884;28;20022;-62
2023/07/04 11:50:20;;;;;;;3.85;1.13;;;;;;;;;;5014893;28;20414;-62
2023/07/04 11:52:55;;;;;;;6.10;1.20;;;;;;;;;;5014828;28;20037;-62
2023/07/04 11:55:33;;;;;;;3.15;1.00;;;;;;;;;;5014696;28;20487;-62
2023/07/04 11:58:07;;;;;;;5.38;1.15;;;;;;;;;;5008476;28;20384;-64
2023/07/04 12:00:36;;;;;;;4.35;1.02;;;;;;;;;;4994807;28;20030;-64
2023/07/04 12:03:20;;;;;;;4.32;1.40;;;;;;;;;;4993931;28;20336;-62
2023/07/04 12:05:50;;;;;;;1.98;0.98;;;;;;;;;;4994930;28;20026;-63
2023/07/04 12:08:30;;;;;;;4.88;0.90;;;;;;;;;;4994787;28;20022;-62
2023/07/04 12:10:59;;;;;;;4.50;1.20;;;;;;;;;;4994458;28;20030;-66
2023/07/04 12:13:29;;;;;;;5.32;1.00;;;;;;;;;;5014042;28;20375;-63
2023/07/04 12:15:56;;;;;;;2.13;0.93;;;;;;;;;;5014621;28;20033;-67
2023/07/04 12:18:29;;;;;;;2.88;1.10;;;;;;;;;;5014544;28;20041;-63
2023/07/04 12:20:56;;;;;;;3.38;1.00;;;;;;;;;;5014142;28;20022;-63
2023/07/04 12:23:23;;;;;;;2.92;1.00;;;;;;;;;;5014236;28;20030;-62
2023/07/04 12:25:51;;;;;;;4.57;1.30;;;;;;;;;;5013796;28;20103;-64
2023/07/04 12:28:22;;;;;;;3.80;1.02;;;;;;;;;;5013751;28;20026;-63
2023/07/04 12:31:08;;;;;;;3.35;1.00;;;;;;;;;;5014055;28;20136;-63
2023/07/04 12:33:44;;;;;;;6.20;1.40;;;;;;;;;;5013731;28;20084;-64
2023/07/04 12:36:13;;;;;;;1.98;0.90;;;;;;;;;;5014065;28;20098;-64
2023/07/04 12:38:48;;;;;;;5.90;1.30;;;;;;;;;;5013949;28;20033;-63
2023/07/04 12:41:20;;;;;;;5.20;1.20;;;;;;;;;;5013496;28;20566;-63
2023/07/04 12:43:51;;;;;;;3.95;1.20;;;;;;;;;;5013769;28;20053;-63
2023/07/04 12:46:20;;;;;;;3.45;0.90;;;;;;;;;;5013856;28;20040;-65
2023/07/04 12:48:47;;;;;;;3.08;1.02;;;;;;;;;;5013796;28;20029;-63
2023/07/04 12:51:19;;;;;;;3.85;1.00;;;;;;;;;;5013624;28;20100;-64
2023/07/04 12:53:45;;;;;;;1.75;0.88;;;;;;;;;;5013247;28;20544;-66
2023/07/04 12:56:12;;;;;;;5.63;1.15;;;;;;;;;;5013555;28;20034;-61
2023/07/04 12:58:46;;;;;;;6.45;1.10;;;;;;;;;;5013518;28;20332;-64
2023/07/04 13:01:25;;;;;;;4.35;1.10;;;;;;;;;;5013403;28;20415;-62
2023/07/04 13:04:15;;;;;;;5.47;0.98;;;;;;;;;;5013455;28;20433;-63
2023/07/04 13:06:45;;;;;;;;;;;;;;;;;;5013801;28;20033;-63
2023/07/04 13:09:11;;;;;;;5.45;1.20;;;;;;;;;;5013159;28;19913;-63
2023/07/04 13:11:36;;;;;;;2.50;1.17;;;;;;;;;;5013288;28;20033;-63
2023/07/04 13:14:07;;;;;;;3.30;1.05;;;;;;;;;;5013001;28;20108;-63
2023/07/04 13:16:34;;;;;;;3.08;1.10;;;;;;;;;;5013161;28;20025;-63
2023/07/04 13:19:05;;;;;;;2.03;0.95;;;;;;;;;;5013175;28;20065;-62
2023/07/04 13:21:37;;;;;;;2.80;1.00;;;;;;;;;;5013119;28;20341;-62
2023/07/04 13:24:08;;;;;;;2.60;1.20;;;;;;;;;;5012861;28;20516;-62
2023/07/04 13:26:36;;;;;;;3.78;1.20;;;;;;;;;;5013170;28;20120;-63
2023/07/04 13:29:14;;;;;;;3.40;1.30;;;;;;;;;;5013058;28;20030;-62
2023/07/04 13:31:40;;;;;;;4.07;1.27;;;;;;;;;;4995320;28;20124;-63
2023/07/04 13:34:11;;;;;;;2.30;1.08;;;;;;;;;;5012973;28;20140;-64
2023/07/04 13:36:40;;;;;;;6.85;1.60;;;;;;;;;;5013085;28;20034;-63
2023/07/04 13:39:05;;;;;;;4.43;1.45;;;;;;;;;;5012920;28;20089;-63
2023/07/04 13:41:31;;;;;;;5.72;1.30;;;;;;;;;;5012672;28;20489;-63
2023/07/04 13:43:57;;;;;;;2.80;1.33;;;;;;;;;;5012884;28;20489;-64
2023/07/04 13:46:23;;;;;;;6.35;1.23;;;;;;;;;;5012962;28;20133;-62
2023/07/04 13:48:52;;;;;;;4.35;1.50;;;;;;;;;;5012686;28;20022;-64
2023/07/04 13:51:22;;;;;;;3.65;1.25;;;;;;;;;;5012595;28;20133;-63
2023/07/04 13:53:48;;;;;;;3.80;1.13;;;;;;;;;;5012858;28;20342;-63
2023/07/04 13:56:13;;;;;;;4.88;1.50;;;;;;;;;;5012595;28;20105;-66
2023/07/04 13:58:39;;;;;;;3.97;1.48;;;;;;;;;;5012959;28;20021;-64
2023/07/04 14:01:07;;;;;;;3.03;1.30;;;;;;;;;;5012637;28;20076;-64
2023/07/04 14:03:34;;;;;;;5.35;1.40;;;;;;;;;;5012592;28;20034;-64
2023/07/04 14:06:01;;;;;;;3.20;1.33;;;;;;;;;;5012533;28;20080;-63
2023/07/04 14:08:28;;;;;;;4.28;1.30;;;;;;;;;;5012696;28;20125;-63
2023/07/04 14:11:20;;;;;;;8.27;1.50;;;;;;;;;;5012600;28;20100;-63
2023/07/04 14:13:46;;;;;;;5.22;1.50;;;;;;;;;;4992011;28;20066;-64
2023/07/04 14:16:16;;;;;;;6.93;1.40;;;;;;;;;;4993096;28;20073;-65
2023/07/04 14:18:41;;;;;;;3.50;1.10;;;;;;;;;;4993244;28;20046;-63
2023/07/04 14:21:09;;;;;;;3.30;1.08;;;;;;;;;;5006640;28;20069;-63
2023/07/04 14:23:35;;;;;;;3.60;1.35;;;;;;;;;;5012537;28;20053;-64
2023/07/04 14:26:01;;;;;;;3.10;1.13;;;;;;;;;;4995629;28;20022;-63
2023/07/04 14:28:26;;;;;;;4.82;1.35;;;;;;;;;;5016365;28;20069;-63
2023/07/04 14:30:54;;;;;;;4.53;1.50;;;;;;;;;;5016146;28;20463;-63
2023/07/04 14:33:20;;;;;;;5.07;1.40;;;;;;;;;;5016368;28;20028;-63
2023/07/04 14:35:46;;;;;;;4.63;1.40;;;;;;;;;;5015967;28;20105;-64
2023/07/04 14:38:11;;;;;;;4.15;1.40;;;;;;;;;;5016279;28;20029;-65
2023/07/04 14:40:38;;;;;;;3.22;1.20;;;;;;;;;;5015920;28;20042;-63
2023/07/04 14:43:04;;;;;;;5.00;1.48;;;;;;;;;;5015899;28;20078;-63
2023/07/04 14:45:29;;;;;;;4.78;1.35;;;;;;;;;;5016049;28;20057;-63
2023/07/04 14:47:55;;;;;;;2.53;1.42;;;;;;;;;;5016012;28;20530;-62
2023/07/04 14:50:22;;;;;;;6.22;1.80;;;;;;;;;;5015693;28;20026;-63